createdAt,value
2024-04-21T00:00:34.232Z,1.98
2024-04-21T00:03:00.868Z,1.90
2024-04-21T00:05:27.380Z,1.20
2024-04-21T00:07:53.958Z,1.20
2024-04-21T00:10:20.446Z,1.58
2024-04-21T00:12:46.949Z,0.95
2024-04-21T00:15:13.451Z,1.42
2024-04-21T00:17:39.968Z,0.95
2024-04-21T00:20:06.852Z,1.50
2024-04-21T00:22:33.417Z,1.20
2024-04-21T00:24:59.935Z,2.13
2024-04-21T00:27:26.426Z,2.25
2024-04-21T00:29:52.938Z,1.98
2024-04-21T00:32:19.721Z,2.55
2024-04-21T00:34:46.210Z,1.30
2024-04-21T00:37:12.834Z,1.95
2024-04-21T00:39:39.810Z,1.25
2024-04-21T00:42:06.359Z,2.40
2024-04-21T00:44:33.046Z,1.60
2024-04-21T00:46:59.578Z,2.13
2024-04-21T00:49:26.615Z,2.45
2024-04-21T00:51:54.706Z,2.22
2024-04-21T00:54:21.259Z,1.83
2024-04-21T00:56:47.817Z,1.30
2024-04-21T00:59:17.084Z,2.15
2024-04-21T01:01:44.828Z,1.40
2024-04-21T01:04:11.522Z,2.15
2024-04-21T01:06:38.084Z,1.88
2024-04-21T01:09:04.594Z,1.42
2024-04-21T01:11:31.116Z,1.75
2024-04-21T01:13:59.254Z,2.08
2024-04-21T01:16:25.797Z,2.22
2024-04-21T01:18:52.354Z,1.80
2024-04-21T01:21:18.869Z,1.80
2024-04-21T01:23:45.404Z,1.83
2024-04-21T01:26:12.091Z,1.60
2024-04-21T01:28:38.638Z,3.03
2024-04-21T01:31:05.221Z,2.00
2024-04-21T01:33:31.766Z,2.15
2024-04-21T01:35:59.143Z,2.08
2024-04-21T01:38:25.626Z,2.50
2024-04-21T01:40:52.154Z,3.40
2024-04-21T01:43:18.742Z,1.77
2024-04-21T01:45:45.387Z,2.05
2024-04-21T01:48:11.882Z,1.48
2024-04-21T01:50:38.355Z,2.00
2024-04-21T01:53:04.837Z,2.35
2024-04-21T01:55:31.379Z,1.80
2024-04-21T01:57:57.907Z,1.90
2024-04-21T02:00:24.421Z,1.95
2024-04-21T02:02:51.010Z,2.42
2024-04-21T02:05:17.615Z,2.53
2024-04-21T02:07:44.111Z,1.98
2024-04-21T02:10:10.611Z,1.60
2024-04-21T02:12:37.115Z,2.80
2024-04-21T02:15:03.702Z,1.48
2024-04-21T02:17:30.240Z,2.63
2024-04-21T02:19:56.750Z,1.90
2024-04-21T02:22:23.269Z,1.77
2024-04-21T02:24:49.793Z,2.78
2024-04-21T02:27:16.270Z,2.28
2024-04-21T02:29:42.736Z,2.03
2024-04-21T02:32:09.266Z,2.20
2024-04-21T02:34:35.881Z,1.83
2024-04-21T02:37:02.457Z,1.60
2024-04-21T02:39:28.997Z,3.17
2024-04-21T02:41:55.509Z,1.75
2024-04-21T02:44:22.160Z,1.77
2024-04-21T02:46:49.235Z,2.45
2024-04-21T02:49:15.927Z,1.00
2024-04-21T02:51:42.495Z,0.85
2024-04-21T02:54:09.041Z,1.10
2024-04-21T02:56:35.561Z,1.05
2024-04-21T02:59:02.649Z,1.20
2024-04-21T03:01:29.244Z,0.80
2024-04-21T03:03:55.923Z,1.27
2024-04-21T03:06:22.458Z,1.23
2024-04-21T03:08:48.932Z,0.90
2024-04-21T03:11:15.448Z,1.15
2024-04-21T03:13:41.973Z,0.93
2024-04-21T03:16:08.537Z,1.00
2024-04-21T03:18:35.095Z,0.95
2024-04-21T03:21:01.611Z,0.95
2024-04-21T03:23:28.177Z,1.17
2024-04-21T03:25:54.708Z,1.20
2024-04-21T03:28:21.257Z,1.35
2024-04-21T03:30:55.107Z,0.90
2024-04-21T03:33:21.762Z,0.90
2024-04-21T03:35:58.298Z,1.00
2024-04-21T03:38:24.763Z,1.05
2024-04-21T03:40:51.223Z,1.13
2024-04-21T03:43:17.765Z,1.58
2024-04-21T03:45:44.309Z,0.80
2024-04-21T03:48:10.849Z,1.17
2024-04-21T03:50:37.362Z,1.33
2024-04-21T03:53:03.921Z,1.40
2024-04-21T03:55:30.409Z,1.30
2024-04-21T03:57:56.899Z,3.03
2024-04-21T04:00:23.425Z,1.20
2024-04-21T04:02:49.949Z,1.40
2024-04-21T04:05:16.601Z,1.55
2024-04-21T04:07:43.566Z,1.95
2024-04-21T04:10:10.154Z,1.17
2024-04-21T04:12:47.161Z,1.77
2024-04-21T04:15:15.219Z,1.02
2024-04-21T04:17:41.917Z,2.38
2024-04-21T04:20:11.034Z,1.15
2024-04-21T04:22:37.715Z,1.10
2024-04-21T04:25:06.904Z,1.42
2024-04-21T04:27:33.465Z,0.85
2024-04-21T04:30:00.029Z,1.08
2024-04-21T04:32:29.593Z,1.25
2024-04-21T04:34:56.362Z,1.25
2024-04-21T04:37:22.928Z,0.70
2024-04-21T04:39:49.469Z,1.20
2024-04-21T04:42:15.957Z,1.77
2024-04-21T04:44:42.516Z,1.10
2024-04-21T04:47:09.081Z,0.93
2024-04-21T04:49:35.596Z,0.80
2024-04-21T04:52:02.156Z,1.25
2024-04-21T04:54:28.658Z,1.70
2024-04-21T04:56:55.498Z,0.88
2024-04-21T04:59:22.055Z,1.00
2024-04-21T05:01:48.988Z,1.20
2024-04-21T05:04:15.613Z,0.88
2024-04-21T05:06:42.135Z,1.30
2024-04-21T05:09:08.707Z,1.55
2024-04-21T05:11:35.281Z,1.35
2024-04-21T05:14:02.278Z,0.90
2024-04-21T05:16:29.330Z,0.95
2024-04-21T05:18:55.853Z,1.17
2024-04-21T05:21:22.343Z,1.60
2024-04-21T05:23:48.812Z,1.10
2024-04-21T05:26:15.328Z,1.27
2024-04-21T05:28:48.647Z,0.98
2024-04-21T05:31:16.758Z,1.30
2024-04-21T05:33:43.316Z,1.15
2024-04-21T05:36:09.872Z,1.50
2024-04-21T05:38:36.368Z,1.33
2024-04-21T05:41:03.027Z,1.08
2024-04-21T05:43:29.532Z,1.30
2024-04-21T05:46:02.472Z,0.98
2024-04-21T05:48:29.104Z,1.02
2024-04-21T05:50:55.680Z,1.55
2024-04-21T05:53:22.215Z,1.50
2024-04-21T05:55:48.686Z,1.45
2024-04-21T05:58:15.174Z,1.52
2024-04-21T06:00:41.669Z,1.33
2024-04-21T06:03:08.227Z,1.10
2024-04-21T06:05:34.784Z,1.23
2024-04-21T06:08:01.239Z,1.10
2024-04-21T06:10:27.758Z,1.00
2024-04-21T06:12:54.902Z,1.15
2024-04-21T06:15:21.498Z,1.35
2024-04-21T06:17:48.259Z,1.38
2024-04-21T06:20:14.833Z,1.50
2024-04-21T06:22:41.319Z,0.82
2024-04-21T06:25:08.361Z,1.10
2024-04-21T06:27:34.987Z,1.00
2024-04-21T06:30:01.677Z,1.83
2024-04-21T06:32:28.259Z,1.02
2024-04-21T06:34:54.787Z,1.30
2024-04-21T06:37:21.376Z,1.52
2024-04-21T06:39:48.062Z,2.33
2024-04-21T06:42:14.560Z,1.27
2024-04-21T06:44:41.403Z,1.60
2024-04-21T06:47:10.822Z,2.03
2024-04-21T06:49:38.436Z,1.45
2024-04-21T06:52:05.664Z,1.88
2024-04-21T06:54:32.251Z,2.10
2024-04-21T06:56:59.364Z,2.22
2024-04-21T06:59:27.031Z,2.60
2024-04-21T07:01:53.669Z,3.30
2024-04-21T07:04:20.328Z,3.67
2024-04-21T07:06:46.876Z,3.88
2024-04-21T07:09:13.363Z,4.35
2024-04-21T07:11:40.075Z,4.10
2024-04-21T07:14:14.822Z,3.70
2024-04-21T07:16:47.185Z,2.72
2024-04-21T07:19:13.868Z,2.90
2024-04-21T07:21:40.417Z,3.08
2024-04-21T07:24:07.245Z,2.47
2024-04-21T07:26:33.781Z,2.65
2024-04-21T07:29:00.318Z,2.60
2024-04-21T07:31:26.910Z,2.45
2024-04-21T07:33:53.441Z,2.25
2024-04-21T07:36:19.956Z,2.95
2024-04-21T07:38:46.471Z,1.98
2024-04-21T07:41:12.946Z,2.13
2024-04-21T07:43:39.481Z,2.10
2024-04-21T07:46:06.015Z,2.65
2024-04-21T07:48:32.584Z,1.67
2024-04-21T07:50:59.197Z,2.03
2024-04-21T07:53:26.029Z,1.88
2024-04-21T07:55:52.540Z,1.75
2024-04-21T07:58:19.521Z,2.08
2024-04-21T08:00:46.152Z,1.85
2024-04-21T08:03:13.195Z,2.33
2024-04-21T08:05:39.745Z,1.35
2024-04-21T08:08:06.330Z,1.20
2024-04-21T08:10:33.130Z,1.52
2024-04-21T08:13:01.407Z,1.52
2024-04-21T08:15:29.119Z,1.70
2024-04-21T08:17:56.683Z,2.20
2024-04-21T08:20:23.215Z,2.15
2024-04-21T08:22:49.706Z,2.33
2024-04-21T08:25:16.300Z,2.30
2024-04-21T08:27:42.880Z,1.65
2024-04-21T08:30:09.506Z,1.40
2024-04-21T08:32:36.074Z,1.30
2024-04-21T08:35:02.679Z,1.05
2024-04-21T08:37:29.381Z,1.98
2024-04-21T08:39:56.002Z,1.95
2024-04-21T08:42:23.185Z,1.52
2024-04-21T08:44:50.665Z,3.85
2024-04-21T08:47:17.317Z,1.88
2024-04-21T08:49:45.028Z,1.42
2024-04-21T08:52:11.818Z,1.83
2024-04-21T08:54:38.372Z,1.33
2024-04-21T08:57:05.474Z,1.50
2024-04-21T08:59:33.497Z,1.63
2024-04-21T09:02:00.279Z,0.90
2024-04-21T09:04:28.057Z,2.20
2024-04-21T09:06:55.423Z,2.35
2024-04-21T09:09:22.696Z,1.40
2024-04-21T09:11:49.259Z,1.40
2024-04-21T09:14:15.754Z,1.50
2024-04-21T09:16:42.251Z,1.90
2024-04-21T09:19:08.793Z,1.65
2024-04-21T09:21:35.291Z,1.33
2024-04-21T09:24:01.842Z,1.88
2024-04-21T09:26:28.342Z,1.45
2024-04-21T09:28:54.890Z,1.92
2024-04-21T09:31:21.527Z,1.77
2024-04-21T09:33:50.316Z,1.45
2024-04-21T09:36:18.067Z,1.90
2024-04-21T09:38:46.726Z,1.58
2024-04-21T09:41:14.518Z,1.65
2024-04-21T09:43:43.816Z,1.55
2024-04-21T09:46:13.387Z,1.70
2024-04-21T09:48:40.792Z,1.92
2024-04-21T09:51:07.812Z,1.52
2024-04-21T09:53:35.221Z,1.85
2024-04-21T09:56:03.012Z,1.90
2024-04-21T09:58:29.665Z,2.03
2024-04-21T10:00:57.744Z,2.00
2024-04-21T10:03:24.542Z,1.45
2024-04-21T10:05:51.965Z,1.70
2024-04-21T10:08:22.094Z,1.52
2024-04-21T10:10:51.045Z,1.85
2024-04-21T10:13:17.672Z,1.70
2024-04-21T10:15:44.622Z,1.60
2024-04-21T10:18:19.177Z,1.33
2024-04-21T10:20:45.775Z,1.52
2024-04-21T10:23:12.631Z,1.55
2024-04-21T10:25:40.813Z,1.55
2024-04-21T10:28:08.080Z,1.10
2024-04-21T10:30:35.084Z,1.40
2024-04-21T10:33:03.793Z,1.58
2024-04-21T10:35:41.015Z,1.45
2024-04-21T10:38:11.413Z,1.35
2024-04-21T10:40:41.782Z,1.50
2024-04-21T10:43:09.043Z,1.45
2024-04-21T10:45:38.926Z,1.00
2024-04-21T10:48:06.342Z,1.52
2024-04-21T10:50:43.376Z,1.52
2024-04-21T10:53:09.957Z,1.63
2024-04-21T10:55:37.150Z,1.30
2024-04-21T10:58:08.114Z,1.15
2024-04-21T11:00:39.152Z,1.23
2024-04-21T11:03:06.948Z,1.50
2024-04-21T11:05:39.302Z,1.33
2024-04-21T11:08:05.918Z,1.38
2024-04-21T11:10:33.272Z,1.48
2024-04-21T11:12:59.945Z,1.50
2024-04-21T11:15:26.515Z,1.58
2024-04-21T11:18:02.197Z,2.28
2024-04-21T11:20:28.826Z,1.30
2024-04-21T11:22:55.469Z,1.50
2024-04-21T11:25:22.758Z,1.50
2024-04-21T11:27:50.688Z,1.45
2024-04-21T11:30:24.704Z,2.05
2024-04-21T11:32:52.060Z,1.35
2024-04-21T11:35:19.621Z,1.90
2024-04-21T11:37:46.309Z,1.40
2024-04-21T11:40:12.807Z,1.08
2024-04-21T11:42:39.326Z,1.45
2024-04-21T11:45:05.871Z,1.45
2024-04-21T11:47:32.603Z,1.17
2024-04-21T11:49:59.198Z,1.95
2024-04-21T11:52:25.773Z,1.60
2024-04-21T11:54:52.373Z,1.58
2024-04-21T11:57:20.057Z,1.60
2024-04-21T11:59:46.675Z,1.90
2024-04-21T12:02:13.290Z,1.23
2024-04-21T12:04:39.950Z,1.30
2024-04-21T12:07:06.544Z,1.30
2024-04-21T12:09:33.081Z,1.27
2024-04-21T12:11:59.655Z,1.30
2024-04-21T12:14:27.693Z,1.40
2024-04-21T12:16:54.728Z,1.08
2024-04-21T12:19:21.377Z,1.42
2024-04-21T12:21:48.369Z,1.35
2024-04-21T12:24:15.001Z,1.50
2024-04-21T12:26:41.479Z,1.10
2024-04-21T12:29:07.980Z,1.52
2024-04-21T12:31:34.514Z,1.30
2024-04-21T12:34:01.038Z,1.30
2024-04-21T12:36:27.528Z,1.30
2024-04-21T12:38:54.011Z,1.27
2024-04-21T12:41:20.523Z,1.33
2024-04-21T12:43:47.019Z,1.20
2024-04-21T12:46:13.588Z,1.20
2024-04-21T12:48:40.167Z,1.30
2024-04-21T12:51:06.684Z,1.20
2024-04-21T12:53:33.165Z,1.25
2024-04-21T12:55:59.884Z,1.17
2024-04-21T12:58:26.466Z,1.20
2024-04-21T13:00:53.125Z,1.10
2024-04-21T13:03:19.767Z,1.35
2024-04-21T13:05:46.249Z,1.23
2024-04-21T13:08:12.719Z,1.00
2024-04-21T13:10:39.302Z,1.10
2024-04-21T13:13:05.837Z,0.93
2024-04-21T13:15:32.380Z,1.20
2024-04-21T13:17:58.950Z,1.08
2024-04-21T13:20:25.539Z,1.30
2024-04-21T13:22:52.102Z,1.13
2024-04-21T13:25:18.631Z,1.10
2024-04-21T13:27:46.178Z,1.30
2024-04-21T13:30:12.755Z,0.90
2024-04-21T13:32:39.357Z,0.90
2024-04-21T13:35:06.189Z,1.10
2024-04-21T13:37:32.789Z,1.00
2024-04-21T13:39:59.834Z,1.40
2024-04-21T13:42:26.386Z,1.08
2024-04-21T13:44:52.882Z,1.30
2024-04-21T13:47:19.462Z,1.30
2024-04-21T13:49:45.967Z,1.35
2024-04-21T13:52:12.515Z,0.98
2024-04-21T13:54:39.096Z,1.30
2024-04-21T13:57:05.804Z,1.20
2024-04-21T13:59:33.183Z,1.30
2024-04-21T14:01:59.763Z,1.00
2024-04-21T14:04:26.921Z,1.00
2024-04-21T14:06:53.558Z,0.90
2024-04-21T14:09:20.111Z,1.02
2024-04-21T14:11:46.628Z,1.40
2024-04-21T14:14:13.582Z,1.17
2024-04-21T14:16:40.244Z,1.20
2024-04-21T14:19:06.800Z,1.10
2024-04-21T14:21:33.329Z,1.10
2024-04-21T14:24:02.130Z,0.95
2024-04-21T14:26:29.160Z,0.90
2024-04-21T14:28:55.664Z,0.73
2024-04-21T14:31:22.401Z,0.95
2024-04-21T14:33:48.952Z,1.20
2024-04-21T14:36:15.512Z,1.08
2024-04-21T14:38:42.043Z,1.10
2024-04-21T14:41:11.168Z,0.90
2024-04-21T14:43:37.817Z,1.55
2024-04-21T14:46:04.604Z,1.50
2024-04-21T14:48:31.133Z,1.52
2024-04-21T14:50:58.495Z,1.33
2024-04-21T14:53:25.337Z,1.63
2024-04-21T14:55:53.141Z,1.40
2024-04-21T14:58:19.772Z,1.85
2024-04-21T15:00:46.316Z,1.70
2024-04-21T15:03:12.816Z,1.92
2024-04-21T15:05:39.326Z,3.13
2024-04-21T15:08:05.904Z,1.48
2024-04-21T15:10:32.575Z,1.50
2024-04-21T15:12:59.181Z,1.52
2024-04-21T15:15:28.686Z,1.60
2024-04-21T15:17:55.795Z,1.50
2024-04-21T15:20:22.295Z,1.45
2024-04-21T15:22:48.905Z,1.30
2024-04-21T15:25:15.481Z,1.33
2024-04-21T15:27:46.384Z,1.10
2024-04-21T15:30:13.516Z,1.55
2024-04-21T15:32:43.392Z,1.30
2024-04-21T15:35:09.955Z,1.40
2024-04-21T15:37:39.531Z,1.27
2024-04-21T15:40:06.534Z,1.42
2024-04-21T15:42:33.231Z,1.60
2024-04-21T15:44:59.796Z,1.40
2024-04-21T15:47:26.864Z,1.50
2024-04-21T15:49:53.456Z,1.67
2024-04-21T15:52:19.973Z,1.50
2024-04-21T15:54:49.833Z,1.60
2024-04-21T15:57:16.471Z,1.95
2024-04-21T15:59:42.984Z,1.52
2024-04-21T16:02:09.535Z,1.77
2024-04-21T16:04:36.168Z,1.10
2024-04-21T16:07:02.726Z,1.25
2024-04-21T16:09:30.072Z,1.70
2024-04-21T16:11:56.554Z,1.73
2024-04-21T16:14:23.060Z,1.80
2024-04-21T16:16:49.741Z,1.60
2024-04-21T16:19:16.329Z,1.63
2024-04-21T16:21:43.022Z,1.55
2024-04-21T16:24:09.512Z,1.48
2024-04-21T16:26:36.049Z,2.20
2024-04-21T16:29:05.267Z,1.35
2024-04-21T16:31:31.915Z,1.63
2024-04-21T16:33:58.709Z,2.00
2024-04-21T16:36:26.324Z,2.47
2024-04-21T16:38:52.991Z,2.08
2024-04-21T16:41:19.666Z,2.30
2024-04-21T16:43:47.143Z,2.50
2024-04-21T16:46:15.713Z,2.92
2024-04-21T16:48:42.473Z,2.53
2024-04-21T16:51:09.194Z,2.65
2024-04-21T16:53:36.458Z,2.70
2024-04-21T16:56:03.165Z,2.97
2024-04-21T16:58:32.745Z,2.55
2024-04-21T17:01:00.056Z,2.60
2024-04-21T17:03:26.688Z,2.00
2024-04-21T17:05:54.883Z,2.60
2024-04-21T17:08:24.189Z,2.60
2024-04-21T17:10:50.854Z,2.72
2024-04-21T17:13:17.364Z,2.40
2024-04-21T17:15:43.949Z,2.05
2024-04-21T17:18:10.497Z,2.55
2024-04-21T17:20:37.135Z,2.83
2024-04-21T17:23:06.339Z,2.15
2024-04-21T17:25:34.366Z,2.00
2024-04-21T17:28:02.339Z,2.30
2024-04-21T17:30:31.243Z,2.17
2024-04-21T17:32:57.859Z,2.55
2024-04-21T17:35:24.477Z,2.28
2024-04-21T17:37:51.049Z,1.98
2024-04-21T17:40:17.676Z,2.42
2024-04-21T17:42:44.151Z,1.98
2024-04-21T17:45:10.936Z,1.50
2024-04-21T17:47:37.519Z,1.75
2024-04-21T17:50:04.147Z,1.90
2024-04-21T17:52:32.950Z,1.48
2024-04-21T17:55:04.419Z,1.52
2024-04-21T17:57:32.920Z,1.10
2024-04-21T17:59:59.510Z,1.80
2024-04-21T18:02:26.178Z,2.05
2024-04-21T18:04:52.848Z,1.73
2024-04-21T18:07:19.456Z,1.92
2024-04-21T18:09:46.012Z,1.85
2024-04-21T18:12:12.541Z,1.52
2024-04-21T18:14:39.034Z,1.58
2024-04-21T18:17:13.712Z,2.10
2024-04-21T18:19:48.459Z,2.05
2024-04-21T18:22:15.847Z,1.58
2024-04-21T18:24:43.344Z,1.90
2024-04-21T18:27:10.051Z,1.90
2024-04-21T18:29:36.595Z,1.98
2024-04-21T18:32:03.211Z,2.15
2024-04-21T18:34:29.718Z,1.90
2024-04-21T18:36:58.300Z,1.70
2024-04-21T18:39:26.284Z,2.15
2024-04-21T18:41:52.815Z,2.17
2024-04-21T18:44:19.317Z,1.88
2024-04-21T18:46:46.083Z,2.05
2024-04-21T18:49:12.645Z,2.35
2024-04-21T18:51:39.241Z,2.17
2024-04-21T18:54:08.946Z,2.17
2024-04-21T18:56:35.453Z,2.00
2024-04-21T18:59:02.049Z,2.17
2024-04-21T19:01:28.597Z,2.45
2024-04-21T19:03:55.137Z,2.30
2024-04-21T19:06:21.630Z,2.60
2024-04-21T19:08:48.089Z,1.98
2024-04-21T19:11:15.006Z,2.40
2024-04-21T19:13:41.791Z,2.80
2024-04-21T19:16:09.224Z,2.53
2024-04-21T19:18:36.404Z,2.53
2024-04-21T19:21:03.055Z,2.25
2024-04-21T19:23:29.890Z,1.58
2024-04-21T19:25:57.066Z,2.65
2024-04-21T19:28:23.765Z,2.40
2024-04-21T19:30:50.282Z,2.75
2024-04-21T19:33:16.885Z,2.60
2024-04-21T19:35:43.435Z,2.75
2024-04-21T19:38:09.938Z,2.65
2024-04-21T19:40:36.645Z,2.60
2024-04-21T19:43:05.209Z,2.40
2024-04-21T19:45:34.563Z,2.28
2024-04-21T19:48:01.366Z,2.92
2024-04-21T19:50:30.416Z,2.20
2024-04-21T19:52:57.101Z,2.60
2024-04-21T19:55:24.980Z,2.60
2024-04-21T19:57:51.526Z,2.58
2024-04-21T20:00:20.446Z,2.45
2024-04-21T20:02:46.977Z,2.53
2024-04-21T20:05:13.486Z,2.50
2024-04-21T20:07:40.104Z,2.20
2024-04-21T20:10:06.700Z,2.70
2024-04-21T20:12:33.233Z,2.65
2024-04-21T20:15:18.337Z,2.78
2024-04-21T20:18:03.582Z,3.03
2024-04-21T20:20:30.208Z,3.50
2024-04-21T20:22:57.137Z,2.75
2024-04-21T20:25:23.828Z,2.60
2024-04-21T20:27:50.343Z,5.80
2024-04-21T20:30:16.896Z,3.00
2024-04-21T20:32:44.102Z,2.55
2024-04-21T20:35:10.675Z,2.65
2024-04-21T20:37:37.167Z,2.55
2024-04-21T20:40:04.191Z,2.35
2024-04-21T20:42:30.750Z,2.40
2024-04-21T20:44:57.246Z,2.28
2024-04-21T20:47:23.736Z,3.00
2024-04-21T20:49:50.214Z,3.05
2024-04-21T20:52:16.773Z,2.10
2024-04-21T20:54:43.505Z,2.25
2024-04-21T20:57:10.331Z,2.47
2024-04-21T20:59:36.831Z,2.75
2024-04-21T21:02:03.473Z,2.28
2024-04-21T21:04:30.098Z,2.47
2024-04-21T21:06:56.620Z,2.80
2024-04-21T21:09:23.134Z,2.72
2024-04-21T21:11:49.638Z,2.75
2024-04-21T21:14:16.095Z,3.05
2024-04-21T21:16:42.737Z,2.75
2024-04-21T21:19:09.272Z,2.90
2024-04-21T21:21:35.829Z,2.55
2024-04-21T21:24:02.310Z,2.70
2024-04-21T21:26:28.875Z,3.05
2024-04-21T21:28:55.505Z,2.58
2024-04-21T21:31:21.999Z,2.63
2024-04-21T21:33:48.620Z,2.97
2024-04-21T21:36:15.389Z,2.78
2024-04-21T21:38:43.766Z,2.40
2024-04-21T21:41:10.620Z,2.92
2024-04-21T21:43:37.185Z,2.65
2024-04-21T21:46:04.089Z,3.08
2024-04-21T21:48:30.705Z,3.17
2024-04-21T21:50:58.095Z,2.95
2024-04-21T21:53:24.616Z,2.85
2024-04-21T21:55:51.171Z,3.10
2024-04-21T21:58:17.724Z,3.70
2024-04-21T22:00:44.382Z,3.22
2024-04-21T22:03:11.285Z,3.05
2024-04-21T22:05:37.792Z,2.72
2024-04-21T22:08:04.356Z,2.92
2024-04-21T22:10:31.375Z,2.97
2024-04-21T22:12:57.974Z,2.83
2024-04-21T22:15:24.446Z,3.58
2024-04-21T22:17:51.018Z,3.42
2024-04-21T22:20:19.052Z,3.60
2024-04-21T22:22:46.932Z,3.88
2024-04-21T22:25:14.751Z,3.42
2024-04-21T22:27:41.275Z,3.28
2024-04-21T22:30:08.011Z,3.42
2024-04-21T22:32:34.788Z,3.20
2024-04-21T22:35:01.490Z,3.40
2024-04-21T22:37:28.664Z,3.53
2024-04-21T22:39:55.201Z,3.30
2024-04-21T22:42:21.701Z,3.50
2024-04-21T22:44:48.184Z,3.20
2024-04-21T22:47:14.673Z,3.10
2024-04-21T22:49:41.252Z,2.78
2024-04-21T22:52:07.828Z,3.63
2024-04-21T22:54:34.413Z,2.85
2024-04-21T22:57:00.913Z,2.72
2024-04-21T22:59:28.189Z,2.90
2024-04-21T23:01:54.656Z,2.95
2024-04-21T23:04:21.209Z,3.30
2024-04-21T23:06:47.809Z,3.47
2024-04-21T23:09:14.302Z,3.53
2024-04-21T23:11:40.760Z,3.13
2024-04-21T23:14:07.779Z,3.17
2024-04-21T23:16:34.462Z,2.88
2024-04-21T23:19:01.094Z,3.05
2024-04-21T23:21:27.591Z,3.00
2024-04-21T23:23:54.180Z,3.58
2024-04-21T23:26:20.822Z,3.40
2024-04-21T23:28:49.039Z,3.17
2024-04-21T23:31:18.905Z,3.67
2024-04-21T23:33:45.421Z,3.25
2024-04-21T23:36:12.231Z,2.92
2024-04-21T23:38:38.730Z,3.50
2024-04-21T23:41:06.176Z,3.17
2024-04-21T23:43:32.950Z,7.25
2024-04-21T23:46:02.836Z,5.40
2024-04-21T23:48:29.376Z,3.97
2024-04-21T23:50:55.876Z,6.03
2024-04-21T23:53:22.444Z,5.22
2024-04-21T23:55:48.954Z,4.13
2024-04-21T23:58:15.450Z,3.60
